Time;durP1;ratioP1;P1;durP2;ratioP2;P2;SDS_P1;SDS_P2;PMS_P1;PMS_P2;Temp;Humidity;BMP_temperature;BMP_pressure;BME280_temperature;BME280_humidity;BME280_pressure;Samples;Min_cycle;Max_cycle;Signal;HPM_P1;HPM_P2
2022/04/02 00:05:57;;;;;;;;;0.00;0.00;;;;;;;;2;288085775;288085775;-78
2022/04/02 00:14:13;;;;;;;;;0.00;0.00;;;;;;;;2;261081178;261081178;-78
2022/04/02 00:23:41;;;;;;;;;0.00;0.00;;;;;;;;2;288083555;288083555;-76
2022/04/02 00:31:56;;;;;;;;;0.00;0.00;;;;;;;;2;261077818;261077818;-77
2022/04/02 00:41:24;;;;;;;;;0.00;0.00;;;;;;;;2;288084995;288084995;-78
2022/04/02 00:49:39;;;;;;;;;0.00;0.00;;;;;;;;2;261076460;261076460;-77
2022/04/02 01:02:26;;;;;;;;;0.00;0.00;;;;;;;;2;288084395;288084395;-78
2022/04/02 01:10:42;;;;;;;;;0.00;0.00;;;;;;;;2;261075683;261075683;-78
2022/04/02 01:20:09;;;;;;;;;0.00;0.00;;;;;;;;2;288083790;288083790;-79
2022/04/02 01:28:26;;;;;;;;;0.00;0.00;;;;;;;;2;261078672;261078672;-79
2022/04/02 01:37:53;;;;;;;;;0.00;0.00;;;;;;;;2;288083218;288083218;-79
2022/04/02 01:46:09;;;;;;;;;0.00;0.00;;;;;;;;2;261077255;261077255;-79
2022/04/02 01:55:37;;;;;;;;;0.00;0.00;;;;;;;;2;288084319;288084319;-77
2022/04/02 02:03:52;;;;;;;;;0.00;0.00;;;;;;;;2;261075049;261075049;-79
2022/04/02 02:13:20;;;;;;;;;0.00;0.00;;;;;;;;2;288084029;288084029;-78
2022/04/02 02:21:35;;;;;;;;;0.00;0.00;;;;;;;;2;261078856;261078856;-77
2022/04/02 02:31:03;;;;;;;;;0.00;0.00;;;;;;;;2;288084361;288084361;-79
2022/04/02 02:39:18;;;;;;;;;0.00;0.00;;;;;;;;2;261075701;261075701;-78
2022/04/02 02:48:47;;;;;;;;;0.00;0.00;;;;;;;;2;288086932;288086932;-77
2022/04/02 02:57:02;;;;;;;;;0.00;0.00;;;;;;;;2;261078560;261078560;-78
2022/04/02 03:06:30;;;;;;;;;0.00;0.00;;;;;;;;2;288084996;288084996;-80
2022/04/02 03:14:45;;;;;;;;;0.00;0.00;;;;;;;;2;261074849;261074849;-78
2022/04/02 03:24:13;;;;;;;;;0.00;0.00;;;;;;;;2;288083807;288083807;-78
2022/04/02 03:32:28;;;;;;;;;0.00;0.00;;;;;;;;2;261075187;261075187;-78
2022/04/02 03:41:56;;;;;;;;;0.00;0.00;;;;;;;;2;288084785;288084785;-78
2022/04/02 03:50:11;;;;;;;;;0.00;0.00;;;;;;;;2;261074129;261074129;-78
2022/04/02 03:59:42;;;;;;;;;0.00;0.00;;;;;;;;2;288087384;288087384;-79
2022/04/02 04:07:57;;;;;;;;;0.00;0.00;;;;;;;;2;261079036;261079036;-82
2022/04/02 04:17:25;;;;;;;;;0.00;0.00;;;;;;;;2;288082930;288082930;-80
2022/04/02 04:25:40;;;;;;;;;0.00;0.00;;;;;;;;2;261077135;261077135;-81
2022/04/02 04:35:08;;;;;;;;;0.00;0.00;;;;;;;;2;288080835;288080835;-81
2022/04/02 04:43:24;;;;;;;;;0.00;0.00;;;;;;;;2;261078343;261078343;-80
2022/04/02 04:52:51;;;;;;;;;0.00;0.00;;;;;;;;2;288082289;288082289;-81
2022/04/02 05:01:08;;;;;;;;;0.00;0.00;;;;;;;;2;261076278;261076278;-82
2022/04/02 05:10:38;;;;;;;;;0.00;0.00;;;;;;;;2;288083035;288083035;-82
2022/04/02 05:18:54;;;;;;;;;0.00;0.00;;;;;;;;2;261076507;261076507;-80
2022/04/02 05:28:21;;;;;;;;;0.00;0.00;;;;;;;;2;288084093;288084093;-80
2022/04/02 05:36:38;;;;;;;;;0.00;0.00;;;;;;;;2;261076369;261076369;-81
2022/04/02 05:46:05;;;;;;;;;0.00;0.00;;;;;;;;2;288080836;288080836;-77
2022/04/02 05:54:21;;;;;;;;;0.00;0.00;;;;;;;;2;261076207;261076207;-77
2022/04/02 06:03:48;;;;;;;;;0.00;0.00;;;;;;;;2;288083817;288083817;-77
2022/04/02 06:12:04;;;;;;;;;0.00;0.00;;;;;;;;2;261074920;261074920;-81
2022/04/02 06:21:31;;;;;;;;;0.00;0.00;;;;;;;;2;288083603;288083603;-77
2022/04/02 06:29:48;;;;;;;;;0.00;0.00;;;;;;;;2;261078237;261078237;-82
2022/04/02 06:39:15;;;;;;;;;0.00;0.00;;;;;;;;2;288087768;288087768;-80
2022/04/02 06:47:31;;;;;;;;;0.00;0.00;;;;;;;;2;261078020;261078020;-78
2022/04/02 06:56:59;;;;;;;;;0.00;0.00;;;;;;;;2;288084092;288084092;-79
2022/04/02 07:05:15;;;;;;;;;0.00;0.00;;;;;;;;2;261078045;261078045;-81
2022/04/02 07:14:43;;;;;;;;;0.00;0.00;;;;;;;;2;288085291;288085291;-81
2022/04/02 07:22:58;;;;;;;;;0.00;0.00;;;;;;;;2;261079268;261079268;-80
2022/04/02 07:32:26;;;;;;;;;0.00;0.00;;;;;;;;2;288085751;288085751;-80
2022/04/02 07:40:49;;;;;;;;;0.00;0.00;;;;;;;;2;261078915;261078915;-81
2022/04/02 07:50:16;;;;;;;;;0.00;0.00;;;;;;;;2;288084411;288084411;-81
2022/04/02 07:58:32;;;;;;;;;0.00;0.00;;;;;;;;2;261075165;261075165;-81
2022/04/02 08:08:01;;;;;;;;;0.00;0.00;;;;;;;;2;288084193;288084193;-80
2022/04/02 08:16:16;;;;;;;;;0.00;0.00;;;;;;;;2;261076023;261076023;-80
2022/04/02 08:25:47;;;;;;;;;0.00;0.00;;;;;;;;2;288087951;288087951;-79
2022/04/02 08:34:16;;;;;;;;;0.00;0.00;;;;;;;;2;261082403;261082403;-78
2022/04/02 08:43:56;;;;;;;;;0.00;0.00;;;;;;;;2;288085042;288085042;-78
2022/04/02 08:52:15;;;;;;;;;0.00;0.00;;;;;;;;2;261074870;261074870;-78
2022/04/02 09:02:02;;;;;;;;;0.00;0.00;;;;;;;;2;288086756;288086756;-82
2022/04/02 09:10:36;;;;;;;;;0.00;0.00;;;;;;;;2;261078978;261078978;-79
2022/04/02 09:20:09;;;;;;;;;0.00;0.00;;;;;;;;2;288084692;288084692;-77
2022/04/02 09:28:25;;;;;;;;;0.00;0.00;;;;;;;;2;261077730;261077730;-79
2022/04/02 09:37:55;;;;;;;;;0.00;0.00;;;;;;;;2;288085490;288085490;-79
2022/04/02 09:46:17;;;;;;;;;0.00;0.00;;;;;;;;2;261077026;261077026;-81
2022/04/02 09:55:56;;;;;;;;;0.00;0.00;;;;;;;;2;288084118;288084118;-80
2022/04/02 10:04:18;;;;;;;;;0.00;0.00;;;;;;;;2;261079168;261079168;-80
2022/04/02 10:13:47;;;;;;;;;0.00;0.00;;;;;;;;2;288085563;288085563;-78
2022/04/02 10:22:02;;;;;;;;;0.00;0.00;;;;;;;;2;261076746;261076746;-79
2022/04/02 10:31:48;;;;;;;;;0.00;0.00;;;;;;;;2;288083216;288083216;-79
2022/04/02 10:40:05;;;;;;;;;0.00;0.00;;;;;;;;2;261076921;261076921;-79
2022/04/02 10:49:34;;;;;;;;;0.00;0.00;;;;;;;;2;288086975;288086975;-79
2022/04/02 10:57:49;;;;;;;;;0.00;0.00;;;;;;;;2;261077816;261077816;-79
2022/04/02 11:07:28;;;;;;;;;0.00;0.00;;;;;;;;2;288081206;288081206;-79
2022/04/02 11:15:44;;;;;;;;;0.00;0.00;;;;;;;;2;261076933;261076933;-79
2022/04/02 11:25:18;;;;;;;;;0.00;0.00;;;;;;;;2;288087428;288087428;-75
2022/04/02 11:33:47;;;;;;;;;0.00;0.00;;;;;;;;2;261075629;261075629;-80
2022/04/02 11:43:17;;;;;;;;;0.00;0.00;;;;;;;;2;288084357;288084357;-78
2022/04/02 11:51:35;;;;;;;;;0.00;0.00;;;;;;;;2;261076226;261076226;-78
2022/04/02 12:01:03;;;;;;;;;0.00;0.00;;;;;;;;2;288081758;288081758;-78
2022/04/02 12:09:22;;;;;;;;;0.00;0.00;;;;;;;;2;261077467;261077467;-79
2022/04/02 12:18:55;;;;;;;;;0.00;0.00;;;;;;;;2;288079368;288079368;-77
2022/04/02 12:27:11;;;;;;;;;0.00;0.00;;;;;;;;2;261076067;261076067;-76
2022/04/02 12:36:40;;;;;;;;;0.00;0.00;;;;;;;;2;288083033;288083033;-79
2022/04/02 12:45:24;;;;;;;;;0.00;0.00;;;;;;;;2;261076620;261076620;-82
2022/04/02 12:54:54;;;;;;;;;0.00;0.00;;;;;;;;2;288085105;288085105;-81
2022/04/02 13:03:10;;;;;;;;;0.00;0.00;;;;;;;;2;261077079;261077079;-81
2022/04/02 13:12:38;;;;;;;;;0.00;0.00;;;;;;;;2;288085568;288085568;-83
2022/04/02 13:20:55;;;;;;;;;0.00;0.00;;;;;;;;2;261075250;261075250;-87
2022/04/02 13:30:32;;;;;;;;;0.00;0.00;;;;;;;;2;288082869;288082869;-88
2022/04/02 13:38:55;;;;;;;;;0.00;0.00;;;;;;;;2;261077050;261077050;-88
2022/04/02 13:48:25;;;;;;;;;0.00;0.00;;;;;;;;2;288080272;288080272;-93
2022/04/02 13:56:41;;;;;;;;;0.00;0.00;;;;;;;;2;261077740;261077740;-88
2022/04/02 14:06:09;;;;;;;;;0.00;0.00;;;;;;;;2;288083011;288083011;-84
2022/04/02 14:14:30;;;;;;;;;0.00;0.00;;;;;;;;2;261077250;261077250;-88
2022/04/02 14:24:21;;;;;;;;;0.00;0.00;;;;;;;;2;288082741;288082741;-85
2022/04/02 14:32:40;;;;;;;;;0.00;0.00;;;;;;;;2;261079925;261079925;-83
2022/04/02 14:42:11;;;;;;;;;0.00;0.00;;;;;;;;2;288084875;288084875;-82
2022/04/02 14:50:52;;;;;;;;;0.00;0.00;;;;;;;;2;261079753;261079753;-84
2022/04/02 15:00:34;;;;;;;;;0.00;0.00;;;;;;;;2;288087200;288087200;-81
2022/04/02 15:09:25;;;;;;;;;0.00;0.00;;;;;;;;2;261078738;261078738;-82
2022/04/02 15:19:10;;;;;;;;;0.00;0.00;;;;;;;;2;288082493;288082493;-84
2022/04/02 15:27:45;;;;;;;;;0.00;0.00;;;;;;;;2;261076055;261076055;-81
2022/04/02 15:37:12;;;;;;;;;0.00;0.00;;;;;;;;2;288084716;288084716;-81
2022/04/02 15:45:29;;;;;;;;;0.00;0.00;;;;;;;;2;261077673;261077673;-81
2022/04/02 15:54:58;;;;;;;;;0.00;0.00;;;;;;;;2;288080039;288080039;-82
2022/04/02 16:03:31;;;;;;;;;0.00;0.00;;;;;;;;2;261078419;261078419;-81
2022/04/02 16:13:18;;;;;;;;;0.00;0.00;;;;;;;;2;288083466;288083466;-80
2022/04/02 16:21:43;;;;;;;;;0.00;0.00;;;;;;;;2;261076789;261076789;-79
2022/04/02 16:31:15;;;;;;;;;0.00;0.00;;;;;;;;2;288082148;288082148;-80
2022/04/02 16:39:35;;;;;;;;;0.00;0.00;;;;;;;;2;261077454;261077454;-81
2022/04/02 16:49:03;;;;;;;;;0.00;0.00;;;;;;;;2;288085229;288085229;-81
2022/04/02 16:57:21;;;;;;;;;0.00;0.00;;;;;;;;2;261075268;261075268;-80
2022/04/02 17:07:02;;;;;;;;;0.00;0.00;;;;;;;;2;288082664;288082664;-81
2022/04/02 17:15:17;;;;;;;;;0.00;0.00;;;;;;;;2;261075854;261075854;-82
2022/04/02 17:24:45;;;;;;;;;0.00;0.00;;;;;;;;2;288082521;288082521;-81
2022/04/02 17:33:01;;;;;;;;;0.00;0.00;;;;;;;;2;261076709;261076709;-82
2022/04/02 17:42:36;;;;;;;;;0.00;0.00;;;;;;;;2;288082775;288082775;-83
2022/04/02 17:50:59;;;;;;;;;0.00;0.00;;;;;;;;2;261076455;261076455;-82
2022/04/02 18:00:27;;;;;;;;;0.00;0.00;;;;;;;;2;288084474;288084474;-82
2022/04/02 18:08:42;;;;;;;;;0.00;0.00;;;;;;;;2;261075468;261075468;-81
2022/04/02 18:18:11;;;;;;;;;0.00;0.00;;;;;;;;2;288083680;288083680;-81
2022/04/02 18:26:27;;;;;;;;;0.00;0.00;;;;;;;;2;261075922;261075922;-81
2022/04/02 18:35:55;;;;;;;;;0.00;0.00;;;;;;;;2;288086100;288086100;-82
2022/04/02 18:44:11;;;;;;;;;0.00;0.00;;;;;;;;2;261074419;261074419;-81
2022/04/02 18:53:39;;;;;;;;;0.00;0.00;;;;;;;;2;288081172;288081172;-81
2022/04/02 19:01:55;;;;;;;;;0.00;0.00;;;;;;;;2;261074438;261074438;-80
2022/04/02 19:11:22;;;;;;;;;0.00;0.00;;;;;;;;2;288083377;288083377;-81
2022/04/02 19:19:37;;;;;;;;;0.00;0.00;;;;;;;;2;261075235;261075235;-81
2022/04/02 19:29:05;;;;;;;;;0.00;0.00;;;;;;;;2;288082477;288082477;-79
2022/04/02 19:37:21;;;;;;;;;0.00;0.00;;;;;;;;2;261078117;261078117;-79
2022/04/02 19:46:48;;;;;;;;;0.00;0.00;;;;;;;;2;288085353;288085353;-80
2022/04/02 19:55:04;;;;;;;;;0.00;0.00;;;;;;;;2;261079199;261079199;-79
2022/04/02 20:04:31;;;;;;;;;0.00;0.00;;;;;;;;2;288082324;288082324;-79
2022/04/02 20:12:47;;;;;;;;;0.00;0.00;;;;;;;;2;261075852;261075852;-80
2022/04/02 20:22:14;;;;;;;;;0.00;0.00;;;;;;;;2;288083258;288083258;-80
2022/04/02 20:30:31;;;;;;;;;0.00;0.00;;;;;;;;2;261076453;261076453;-80
2022/04/02 20:39:59;;;;;;;;;0.00;0.00;;;;;;;;2;288083501;288083501;-80
2022/04/02 20:48:14;;;;;;;;;0.00;0.00;;;;;;;;2;261076062;261076062;-79
2022/04/02 20:57:42;;;;;;;;;0.00;0.00;;;;;;;;2;288082466;288082466;-80
2022/04/02 21:05:58;;;;;;;;;0.00;0.00;;;;;;;;2;261078119;261078119;-80
2022/04/02 21:15:25;;;;;;;;;0.00;0.00;;;;;;;;2;288085006;288085006;-80
2022/04/02 21:23:41;;;;;;;;;0.00;0.00;;;;;;;;2;261076172;261076172;-79
2022/04/02 21:33:08;;;;;;;;;0.00;0.00;;;;;;;;2;288083702;288083702;-79
2022/04/02 21:41:24;;;;;;;;;0.00;0.00;;;;;;;;2;261076141;261076141;-79
2022/04/02 21:50:51;;;;;;;;;0.00;0.00;;;;;;;;2;288082647;288082647;-79
2022/04/02 21:59:07;;;;;;;;;0.00;0.00;;;;;;;;2;261078777;261078777;-78
2022/04/02 22:08:35;;;;;;;;;0.00;0.00;;;;;;;;2;288084149;288084149;-79
2022/04/02 22:16:50;;;;;;;;;0.00;0.00;;;;;;;;2;261077807;261077807;-78
2022/04/02 22:26:18;;;;;;;;;0.00;0.00;;;;;;;;2;288082601;288082601;-78
2022/04/02 22:34:33;;;;;;;;;0.00;0.00;;;;;;;;2;261075466;261075466;-78
2022/04/02 22:44:02;;;;;;;;;0.00;0.00;;;;;;;;2;288082769;288082769;-79
2022/04/02 22:52:17;;;;;;;;;0.00;0.00;;;;;;;;2;261076413;261076413;-78
2022/04/02 23:01:45;;;;;;;;;0.00;0.00;;;;;;;;2;288082197;288082197;-78
2022/04/02 23:10:00;;;;;;;;;0.00;0.00;;;;;;;;2;261078117;261078117;-79
2022/04/02 23:19:28;;;;;;;;;0.00;0.00;;;;;;;;2;288085149;288085149;-79
2022/04/02 23:27:43;;;;;;;;;0.00;0.00;;;;;;;;2;261074442;261074442;-78
2022/04/02 23:37:11;;;;;;;;;0.00;0.00;;;;;;;;2;288083782;288083782;-79
2022/04/02 23:45:28;;;;;;;;;0.00;0.00;;;;;;;;2;261074553;261074553;-78
2022/04/02 23:54:55;;;;;;;;;0.00;0.00;;;;;;;;2;288083440;288083440;-79
